Time;durP1;ratioP1;P1;durP2;ratioP2;P2;SDS_P1;SDS_P2;PMS_P1;PMS_P2;Temp;Humidity;BMP_temperature;BMP_pressure;BME280_temperature;BME280_humidity;BME280_pressure;Samples;Min_cycle;Max_cycle;Signal;HPM_P1;HPM_P2
2020/12/14 00:02:45;;;;;;;42.60;28.07;;;;;;;0.46;90.90;100185.40;1775046;81;21239;-78
2020/12/14 00:05:51;;;;;;;44.38;21.50;;;;;;;0.42;90.96;100177.17;1775135;81;21295;-78
2020/12/14 00:08:56;;;;;;;35.30;18.45;;;;;;;0.41;91.04;100172.29;1773652;81;21300;-78
2020/12/14 00:12:02;;;;;;;41.20;24.57;;;;;;;0.41;91.10;100156.63;1775164;81;21822;-78
2020/12/14 00:15:09;;;;;;;36.63;17.82;;;;;;;0.41;91.16;100147.21;1773994;81;21239;-78
2020/12/14 00:18:15;;;;;;;43.78;24.37;;;;;;;0.43;91.19;100139.91;1774814;81;21226;-78
2020/12/14 00:21:22;;;;;;;36.33;20.35;;;;;;;0.42;91.11;100144.89;1775188;81;21839;-78
2020/12/14 00:24:28;;;;;;;56.73;39.25;;;;;;;0.39;91.10;100151.87;1751778;81;21338;-78
2020/12/14 00:27:33;;;;;;;38.95;24.30;;;;;;;0.36;91.12;100151.59;1775248;81;22640;-78
2020/12/14 00:30:40;;;;;;;52.00;32.35;;;;;;;0.33;91.23;100155.88;1775086;81;21300;-78
2020/12/14 00:33:44;;;;;;;45.90;29.77;;;;;;;0.35;91.31;100160.65;1774535;81;21339;-78
2020/12/14 00:36:52;;;;;;;67.17;48.87;;;;;;;0.34;91.32;100157.59;1750659;81;21887;-78
2020/12/14 00:39:58;;;;;;;38.78;23.47;;;;;;;0.33;91.31;100160.38;1775057;81;21724;-78
2020/12/14 00:43:03;;;;;;;36.85;22.75;;;;;;;0.33;91.33;100159.92;1775109;81;21161;-78
2020/12/14 00:46:09;;;;;;;36.35;17.85;;;;;;;0.34;91.36;100148.66;1775033;81;21339;-78
2020/12/14 00:49:15;;;;;;;46.70;27.80;;;;;;;0.37;91.35;100143.03;1773882;81;21774;-78
2020/12/14 00:52:21;;;;;;;48.92;29.12;;;;;;;0.39;91.25;100135.72;1773206;81;21359;-78
2020/12/14 00:55:26;;;;;;;43.42;26.30;;;;;;;0.41;91.12;100125.69;1773944;81;21172;-78
2020/12/14 00:58:32;;;;;;;50.73;30.80;;;;;;;0.37;90.99;100130.44;1774620;81;21716;-78
2020/12/14 01:01:38;;;;;;;45.90;27.52;;;;;;;0.35;90.98;100122.13;1773217;81;21347;-78
2020/12/14 01:04:44;;;;;;;38.90;23.12;;;;;;;0.31;91.00;100131.39;1773046;80;21791;-78
2020/12/14 01:07:49;;;;;;;46.35;29.42;;;;;;;0.25;91.15;100136.27;1774891;81;21295;-78
2020/12/14 01:10:57;;;;;;;62.88;42.48;;;;;;;0.22;91.30;100149.94;1775046;81;21228;-78
2020/12/14 01:14:02;;;;;;;31.30;17.45;;;;;;;0.22;91.47;100140.52;1773661;81;21811;-78
2020/12/14 01:17:07;;;;;;;32.48;16.65;;;;;;;0.23;91.58;100138.19;1775119;81;21687;-77
2020/12/14 01:20:14;;;;;;;42.58;22.10;;;;;;;0.26;91.62;100150.57;1774657;81;21233;-77
2020/12/14 01:23:20;;;;;;;36.68;18.15;;;;;;;0.29;91.61;100153.05;1773950;81;21304;-78
2020/12/14 01:26:26;;;;;;;30.08;15.88;;;;;;;0.33;91.57;100147.81;1774252;81;21240;-78
2020/12/14 01:29:31;;;;;;;26.93;14.70;;;;;;;0.37;91.36;100137.65;1775502;81;21831;-77
2020/12/14 01:32:36;;;;;;;27.73;15.05;;;;;;;0.37;91.22;100137.16;1775162;81;21726;-78
2020/12/14 01:35:41;;;;;;;28.20;14.55;;;;;;;0.38;91.12;100129.48;1773979;81;21326;-78
2020/12/14 01:38:48;;;;;;;28.45;14.85;;;;;;;0.36;91.00;100132.76;1774718;81;21339;-78
2020/12/14 01:41:53;;;;;;;33.02;16.10;;;;;;;0.37;90.99;100141.69;1774564;81;21181;-78
2020/12/14 01:44:58;;;;;;;26.90;15.50;;;;;;;0.38;90.94;100137.55;1774625;81;21330;-78
2020/12/14 01:48:08;;;;;;;24.43;13.45;;;;;;;0.42;90.88;100138.16;1773633;81;21189;-78
2020/12/14 01:51:14;;;;;;;34.67;20.82;;;;;;;0.46;90.81;100144.54;1775223;81;21343;-78
2020/12/14 01:54:32;;;;;;;27.02;17.50;;;;;;;0.52;90.67;100156.70;1775049;81;21355;-78
2020/12/14 01:57:38;;;;;;;64.50;47.43;;;;;;;0.57;90.51;100182.78;1775108;81;21177;-77
2020/12/14 02:00:44;;;;;;;38.73;20.72;;;;;;;0.63;90.29;100189.03;1773671;81;21300;-78
2020/12/14 02:03:50;;;;;;;34.63;17.30;;;;;;;0.62;89.96;100188.67;1773668;81;21811;-78
2020/12/14 02:06:56;;;;;;;28.73;15.03;;;;;;;0.62;89.82;100188.67;1783099;80;21208;-78
2020/12/14 02:10:01;;;;;;;42.80;28.98;;;;;;;0.65;89.83;100187.07;1789414;80;21821;-77
2020/12/14 02:13:06;;;;;;;33.18;21.00;;;;;;;0.71;89.73;100181.25;1789290;80;21287;-77
2020/12/14 02:16:11;;;;;;;31.82;23.10;;;;;;;0.70;89.44;100171.42;1788001;80;21280;-77
2020/12/14 02:19:18;;;;;;;24.20;14.40;;;;;;;0.66;89.31;100166.39;1788012;80;21675;-77
2020/12/14 02:22:29;;;;;;;30.75;15.53;;;;;;;0.65;89.38;100158.80;1789418;80;21287;-77
2020/12/14 02:25:35;;;;;;;24.32;13.32;;;;;;;0.65;89.43;100158.80;1789277;80;21339;-77
2020/12/14 02:28:44;;;;;;;30.40;14.43;;;;;;;0.61;89.52;100154.66;1789289;80;21292;-77
2020/12/14 02:31:50;;;;;;;28.70;17.10;;;;;;;0.67;89.73;100154.67;1789771;80;21244;-77
2020/12/14 02:34:55;;;;;;;33.50;19.07;;;;;;;0.74;89.80;100160.80;1789639;80;21760;-77
2020/12/14 02:38:00;;;;;;;28.00;15.53;;;;;;;0.81;89.68;100163.05;1788000;80;21323;-77
2020/12/14 02:41:06;;;;;;;30.25;15.95;;;;;;;0.85;89.52;100160.45;1789673;80;21222;-77
2020/12/14 02:44:11;;;;;;;43.85;29.98;;;;;;;0.83;89.29;100169.16;1788148;80;21176;-77
2020/12/14 02:47:17;;;;;;;38.60;20.62;;;;;;;0.76;89.23;100159.36;1788264;80;21267;-77
2020/12/14 02:50:22;;;;;;;35.25;22.15;;;;;;;0.73;89.34;100166.31;1789531;80;21838;-77
2020/12/14 02:53:29;;;;;;;34.58;18.05;;;;;;;0.70;89.48;100166.53;1789568;80;21295;-78
2020/12/14 02:56:34;;;;;;;38.17;23.52;;;;;;;0.69;89.57;100158.95;1788913;80;21875;-78
2020/12/14 02:59:40;;;;;;;43.98;26.82;;;;;;;0.67;89.67;100159.56;1789485;80;21303;-77
2020/12/14 03:02:46;;;;;;;30.05;16.35;;;;;;;0.61;89.76;100150.62;1789426;80;21291;-78
2020/12/14 03:05:51;;;;;;;28.35;16.40;;;;;;;0.59;89.98;100151.20;1789456;80;21306;-77
2020/12/14 03:08:56;;;;;;;31.30;16.57;;;;;;;0.59;90.12;100136.41;1776971;80;21315;-77
2020/12/14 03:12:02;;;;;;;35.60;20.32;;;;;;;0.61;90.19;100140.31;1777315;80;21189;-77
2020/12/14 03:15:08;;;;;;;28.62;17.32;;;;;;;0.63;90.22;100141.92;1777333;80;21346;-77
2020/12/14 03:18:15;;;;;;;23.40;14.45;;;;;;;0.64;90.20;100135.56;1778648;80;21335;-77
2020/12/14 03:21:23;;;;;;;31.55;16.62;;;;;;;0.63;90.21;100143.27;1778698;80;21224;-77
2020/12/14 03:24:29;;;;;;;28.45;14.33;;;;;;;0.58;90.23;100140.08;1778748;80;21736;-78
2020/12/14 03:27:34;;;;;;;27.67;15.43;;;;;;;0.55;90.34;100138.95;1777710;80;21324;-78
2020/12/14 03:30:43;;;;;;;35.48;15.10;;;;;;;0.54;90.46;100135.90;1778661;80;21303;-78
2020/12/14 03:33:49;;;;;;;31.52;15.45;;;;;;;0.53;90.59;100124.77;1778708;80;21299;-77
2020/12/14 03:36:56;;;;;;;31.12;15.40;;;;;;;0.54;90.69;100142.63;1777091;80;21196;-77
2020/12/14 03:40:01;;;;;;;27.20;15.05;;;;;;;0.53;90.76;100124.77;1777283;80;21853;-77
2020/12/14 03:43:06;;;;;;;28.70;16.57;;;;;;;0.55;90.80;100139.44;1777190;80;21293;-77
2020/12/14 03:46:12;;;;;;;27.00;14.38;;;;;;;0.59;90.86;100131.02;1777250;80;21343;-77
2020/12/14 03:49:18;;;;;;;29.72;16.07;;;;;;;0.64;90.79;100126.62;1778951;80;21188;-76
2020/12/14 03:52:24;;;;;;;36.28;20.80;;;;;;;0.61;90.62;100127.74;1778170;80;21331;-77
2020/12/14 03:55:29;;;;;;;33.13;18.17;;;;;;;0.58;90.54;100115.85;1778763;80;21498;-77
2020/12/14 03:58:35;;;;;;;46.95;30.37;;;;;;;0.57;90.57;100118.18;1777239;80;21287;-77
2020/12/14 04:01:44;;;;;;;57.05;42.53;;;;;;;0.56;90.61;100131.24;1777231;80;21240;-77
2020/12/14 04:04:50;;;;;;;52.40;34.20;;;;;;;0.56;90.66;100126.34;1777051;80;21871;-77
2020/12/14 04:07:55;;;;;;;53.28;31.93;;;;;;;0.49;90.76;100125.48;1776951;80;21855;-78
2020/12/14 04:11:00;;;;;;;40.00;21.17;;;;;;;0.40;90.96;100124.83;1774939;81;21295;-77
2020/12/14 04:14:06;;;;;;;42.85;29.75;;;;;;;0.37;91.27;100120.16;1775166;81;21486;-77
2020/12/14 04:17:13;;;;;;;68.52;47.15;;;;;;;0.37;91.49;100126.39;1774806;81;21228;-77
2020/12/14 04:20:19;;;;;;;34.45;20.57;;;;;;;0.38;91.62;100140.73;1775080;81;21284;-77
2020/12/14 04:23:26;;;;;;;51.40;35.75;;;;;;;0.38;91.79;100139.39;1774267;81;21324;-77
2020/12/14 04:26:32;;;;;;;41.50;26.02;;;;;;;0.36;91.94;100145.36;1775003;81;21275;-77
2020/12/14 04:29:38;;;;;;;56.60;41.08;;;;;;;0.35;92.08;100135.58;1775148;81;21315;-77
2020/12/14 04:32:44;;;;;;;33.67;23.65;;;;;;;0.35;92.19;100131.05;1774867;81;22082;-78
2020/12/14 04:35:43;;;;;;;35.75;17.05;;;;;;;0.36;92.25;100143.52;1774950;81;21815;-78
2020/12/14 04:38:49;;;;;;;38.98;25.77;;;;;;;0.36;92.24;100142.67;1773718;81;21347;-78
2020/12/14 04:41:55;;;;;;;49.70;34.13;;;;;;;0.34;92.29;100153.56;1775077;81;22019;-78
2020/12/14 04:45:03;;;;;;;52.73;32.50;;;;;;;0.35;92.38;100163.83;1775173;81;21369;-78
2020/12/14 04:48:08;;;;;;;65.72;46.70;;;;;;;0.37;92.43;100159.17;1774586;81;21878;-77
2020/12/14 04:51:14;;;;;;;70.20;44.38;;;;;;;0.41;92.41;100168.73;1775165;81;21173;-77
2020/12/14 04:54:19;;;;;;;43.15;25.90;;;;;;;0.41;92.30;100164.70;1774060;81;21319;-77
2020/12/14 04:57:26;;;;;;;43.85;29.87;;;;;;;0.40;92.25;100158.47;1751680;81;21284;-77
2020/12/14 05:00:32;;;;;;;31.73;16.82;;;;;;;0.44;92.21;100161.30;1774933;81;21724;-77
2020/12/14 05:03:38;;;;;;;35.28;16.90;;;;;;;0.49;92.11;100143.47;1773507;81;21858;-77
2020/12/14 05:06:59;;;;;;;35.38;16.15;;;;;;;0.51;91.98;100149.58;1775085;81;21271;-77
2020/12/14 05:10:08;;;;;;;35.08;21.55;;;;;;;0.56;91.85;100158.16;1780158;80;21260;-77
2020/12/14 05:13:17;;;;;;;48.45;29.40;;;;;;;0.58;91.69;100157.57;1789282;80;21298;-77
2020/12/14 05:16:23;;;;;;;31.42;18.10;;;;;;;0.60;91.56;100166.86;1789012;80;21287;-77
2020/12/14 05:19:35;;;;;;;32.67;17.57;;;;;;;0.63;91.44;100154.04;1766447;80;21294;-77
2020/12/14 05:22:41;;;;;;;37.23;17.75;;;;;;;0.66;91.30;100167.28;1789078;80;21310;-77
2020/12/14 05:25:45;;;;;;;35.78;17.37;;;;;;;0.71;91.14;100157.51;1789136;80;21282;-77
2020/12/14 05:28:52;;;;;;;33.83;18.75;;;;;;;0.72;90.95;100164.11;1788472;80;21318;-76
2020/12/14 05:32:12;;;;;;;49.60;31.25;;;;;;;0.70;90.85;100162.50;1721407;83;21337;-77
2020/12/14 05:35:19;;;;;;;46.68;26.73;;;;;;;0.70;90.86;100168.73;1728074;81;21321;-78
2020/12/14 05:38:37;;;;;;;69.47;52.85;;;;;;;0.70;90.94;100183.54;1720969;81;22004;-78
2020/12/14 05:41:43;;;;;;;59.60;41.30;;;;;;;0.68;90.91;100186.84;1720535;83;21346;-77
2020/12/14 05:44:50;;;;;;;58.83;42.08;;;;;;;0.66;90.95;100206.31;1721903;83;21325;-78
2020/12/14 05:47:57;;;;;;;50.40;38.50;;;;;;;0.67;91.04;100215.24;1759766;80;21298;-78
2020/12/14 05:51:11;;;;;;;74.90;55.67;;;;;;;0.72;91.21;100211.72;1789266;80;21303;-77
2020/12/14 05:54:19;;;;;;;31.52;18.40;;;;;;;0.73;91.28;100211.59;1752000;81;21853;-77
2020/12/14 05:57:41;;;;;;;31.90;17.33;;;;;;;0.82;91.45;100211.88;1789673;80;21284;-77
2020/12/14 06:00:49;;;;;;;31.87;14.90;;;;;;;0.87;91.43;100215.08;1757467;80;21354;-77
2020/12/14 06:03:55;;;;;;;50.48;33.10;;;;;;;0.89;91.32;100217.15;1764233;80;22035;-77
2020/12/14 06:07:01;;;;;;;32.75;21.77;;;;;;;0.92;91.28;100220.97;1689323;83;21322;-76
2020/12/14 06:10:22;;;;;;;53.80;35.00;;;;;;;0.92;91.06;100222.31;1701885;83;21294;-77
2020/12/14 06:13:30;;;;;;;53.77;32.27;;;;;;;0.89;90.99;100218.50;1690306;84;21201;-77
2020/12/14 06:16:39;;;;;;;40.17;22.77;;;;;;;0.83;91.08;100221.66;1690196;83;21857;-77
2020/12/14 06:19:45;;;;;;;69.50;52.73;;;;;;;0.81;91.23;100239.78;1675057;84;21914;-77
2020/12/14 06:22:57;;;;;;;53.17;37.35;;;;;;;0.76;91.41;100235.60;1705457;83;21342;-76
2020/12/14 06:26:03;;;;;;;47.98;34.23;;;;;;;0.80;91.57;100232.66;1685020;84;21929;-78
2020/12/14 06:29:08;;;;;;;42.60;22.02;;;;;;;0.82;91.68;100238.80;1692952;83;22695;-78
2020/12/14 06:32:40;;;;;;;65.62;43.35;;;;;;;0.84;91.76;100240.87;1696751;83;21323;-78
2020/12/14 06:35:56;;;;;;;48.75;33.28;;;;;;;0.84;91.76;100240.87;1708936;83;21347;-77
2020/12/14 06:39:01;;;;;;;75.30;56.68;;;;;;;0.81;91.75;100219.09;1694754;83;21382;-77
2020/12/14 06:42:27;;;;;;;59.98;38.73;;;;;;;0.75;91.88;100215.05;1686964;83;21319;-77
2020/12/14 06:45:33;;;;;;;49.05;31.33;;;;;;;0.69;92.02;100222.22;1704626;83;21303;-77
2020/12/14 06:48:51;;;;;;;69.40;54.08;;;;;;;0.69;92.30;100222.70;1679923;83;21386;-77
2020/12/14 06:52:00;;;;;;;70.17;45.70;;;;;;;0.68;92.54;100220.99;1687144;83;21362;-77
2020/12/14 06:55:07;;;;;;;71.92;45.30;;;;;;;0.69;92.79;100220.02;1695358;83;21383;-78
2020/12/14 06:58:16;;;;;;;43.75;29.23;;;;;;;0.71;92.90;100220.28;1697089;83;21173;-82
2020/12/14 07:01:46;;;;;;;63.40;45.38;;;;;;;0.73;92.97;100225.05;1693656;83;21368;-79
2020/12/14 07:04:51;;;;;;;51.42;31.52;;;;;;;0.78;92.86;100225.20;1688744;83;21346;-78
2020/12/14 07:08:03;;;;;;;72.50;52.98;;;;;;;0.83;92.67;100225.70;1692477;83;21294;-78
2020/12/14 07:11:23;;;;;;;57.25;41.35;;;;;;;0.85;92.42;100226.43;1692338;83;21414;-78
2020/12/14 07:14:37;;;;;;;49.50;30.27;;;;;;;0.86;92.28;100225.48;1737578;81;21814;-78
2020/12/14 07:17:43;;;;;;;59.48;44.58;;;;;;;0.87;92.17;100233.92;1780013;79;21821;-78
2020/12/14 07:21:07;;;;;;;64.55;45.50;;;;;;;0.88;92.06;100230.25;1782357;79;21752;-77
2020/12/14 07:24:08;;;;;;;64.90;45.95;;;;;;;0.92;91.89;100237.13;1757712;79;21359;-76
2020/12/14 07:27:18;;;;;;;38.08;26.42;;;;;;;0.91;91.59;100241.66;1755278;80;21238;-76
2020/12/14 07:30:24;;;;;;;57.33;39.30;;;;;;;0.90;91.36;100237.25;1784442;79;22017;-76
2020/12/14 07:33:30;;;;;;;41.40;25.23;;;;;;;0.88;91.29;100247.75;1701732;83;21203;-76
2020/12/14 07:36:36;;;;;;;64.47;49.25;;;;;;;0.86;91.32;100242.98;1714153;81;21333;-77
2020/12/14 07:39:42;;;;;;;46.40;29.57;;;;;;;0.84;91.49;100247.13;1787135;79;21176;-76
2020/12/14 07:42:49;;;;;;;101.62;77.03;;;;;;;0.82;91.58;100249.57;1776488;79;21189;-76
2020/12/14 07:45:55;;;;;;;55.55;39.42;;;;;;;0.81;91.66;100249.21;1784551;79;21310;-76
2020/12/14 07:49:06;;;;;;;106.40;90.72;;;;;;;0.81;91.77;100247.86;1780355;79;21346;-77
2020/12/14 07:52:12;;;;;;;61.35;44.35;;;;;;;0.83;91.96;100258.02;1784042;79;21338;-77
2020/12/14 07:55:19;;;;;;;57.13;40.23;;;;;;;0.85;92.01;100257.40;1781806;79;21865;-78
2020/12/14 07:58:24;;;;;;;62.60;46.02;;;;;;;0.88;92.05;100267.46;1774325;79;21222;-79
2020/12/14 08:01:30;;;;;;;73.17;50.43;;;;;;;0.91;92.02;100271.77;1782271;79;21122;-78
2020/12/14 08:04:41;;;;;;;64.32;50.03;;;;;;;0.91;91.96;100266.39;1781497;79;21302;-78
2020/12/14 08:08:00;;;;;;;48.48;30.30;;;;;;;0.92;91.98;100251.94;1772529;79;21202;-78
2020/12/14 08:11:05;;;;;;;55.95;38.80;;;;;;;0.92;92.03;100252.80;1787463;79;21326;-78
2020/12/14 08:14:10;;;;;;;65.97;45.88;;;;;;;0.93;92.07;100250.95;1741503;79;22806;-77
2020/12/14 08:17:21;;;;;;;42.33;25.80;;;;;;;0.95;92.24;100250.37;1712402;81;21237;-78
2020/12/14 08:20:43;;;;;;;43.75;27.70;;;;;;;0.97;92.35;100245.71;1728400;81;21343;-76
2020/12/14 08:23:50;;;;;;;69.03;52.05;;;;;;;0.98;92.39;100250.12;1716745;81;21324;-78
2020/12/14 08:26:55;;;;;;;69.05;50.73;;;;;;;1.01;92.39;100251.24;1719396;81;21217;-78
2020/12/14 08:30:08;;;;;;;48.33;32.48;;;;;;;1.03;92.47;100254.66;1722997;81;22189;-77
2020/12/14 08:33:22;;;;;;;50.70;34.43;;;;;;;1.02;92.50;100258.34;1726753;81;21207;-78
2020/12/14 08:36:28;;;;;;;65.28;49.45;;;;;;;1.01;92.50;100251.24;1727059;81;21280;-78
2020/12/14 08:39:34;;;;;;;40.60;27.87;;;;;;;1.02;92.62;100248.91;1723559;81;21198;-77
2020/12/14 08:42:40;;;;;;;45.45;30.77;;;;;;;1.01;92.72;100245.36;1723040;81;21231;-78
2020/12/14 08:46:15;;;;;;;46.35;30.48;;;;;;;1.01;92.85;100242.67;1722530;82;21315;-78
2020/12/14 08:49:20;;;;;;;38.30;22.87;;;;;;;1.03;93.00;100234.46;1731400;81;21290;-78
2020/12/14 08:52:44;;;;;;;53.75;32.98;;;;;;;1.04;93.16;100232.66;1706750;83;21225;-78
2020/12/14 08:55:47;;;;;;;45.58;32.73;;;;;;;1.08;93.19;100244.39;1720923;81;21733;-78
2020/12/14 08:59:03;;;;;;;82.12;66.57;;;;;;;1.15;93.26;100240.27;1719792;81;21193;-78
2020/12/14 09:02:14;;;;;;;44.18;28.55;;;;;;;1.20;93.19;100235.88;1732157;81;22431;-78
2020/12/14 09:05:26;;;;;;;35.05;23.90;;;;;;;1.20;93.13;100219.22;1730585;81;21317;-78
2020/12/14 09:08:31;;;;;;;93.60;79.95;;;;;;;1.18;93.04;100216.29;1724280;81;21187;-77
2020/12/14 09:11:38;;;;;;;40.98;29.18;;;;;;;1.21;93.05;100209.30;1723872;81;21324;-78
2020/12/14 09:14:54;;;;;;;57.13;37.25;;;;;;;1.24;93.05;100212.61;1728573;80;21200;-79
2020/12/14 09:18:09;;;;;;;43.40;23.92;;;;;;;1.30;92.99;100231.48;1705204;83;21377;-79
2020/12/14 09:21:20;;;;;;;42.58;27.22;;;;;;;1.34;92.88;100238.84;1728449;81;21350;-79
2020/12/14 09:24:29;;;;;;;46.35;32.45;;;;;;;1.37;92.81;100226.50;1771964;79;21199;-79
2020/12/14 09:27:36;;;;;;;51.45;36.83;;;;;;;1.40;92.71;100224.39;1773840;79;21244;-78
2020/12/14 09:30:42;;;;;;;33.67;22.17;;;;;;;1.44;92.36;100227.22;1776136;80;21878;-78
2020/12/14 09:33:51;;;;;;;81.65;68.15;;;;;;;1.51;92.20;100219.53;1768373;80;21316;-78
2020/12/14 09:36:59;;;;;;;50.05;36.13;;;;;;;1.58;92.02;100207.27;1765215;80;21334;-79
2020/12/14 09:40:06;;;;;;;51.33;39.33;;;;;;;1.60;91.81;100216.58;1757859;80;21306;-79
2020/12/14 09:43:11;;;;;;;51.68;42.60;;;;;;;1.67;91.71;100221.38;1772676;79;21320;-78
2020/12/14 09:46:17;;;;;;;40.67;21.37;;;;;;;1.71;91.51;100220.15;1777775;79;21164;-78
2020/12/14 09:49:23;;;;;;;75.42;56.77;;;;;;;1.78;91.43;100217.31;1775558;79;21625;-78
2020/12/14 09:52:29;;;;;;;42.80;28.85;;;;;;;1.86;91.23;100205.07;1770103;79;21271;-78
2020/12/14 09:55:34;;;;;;;62.73;49.23;;;;;;;1.89;90.98;100192.20;1768731;79;21338;-78
2020/12/14 09:58:39;;;;;;;111.35;92.57;;;;;;;1.93;90.67;100199.53;1767363;79;21275;-78
2020/12/14 10:01:46;;;;;;;59.50;40.20;;;;;;;1.94;90.45;100199.92;1775686;80;21179;-78
2020/12/14 10:04:52;;;;;;;35.80;15.58;;;;;;;1.97;90.50;100195.12;1769793;79;21338;-78
2020/12/14 10:07:59;;;;;;;26.15;13.22;;;;;;;2.01;90.62;100189.84;1777538;79;21561;-79
2020/12/14 10:11:04;;;;;;;26.45;14.53;;;;;;;2.08;90.61;100198.81;1773372;79;21342;-79
2020/12/14 10:14:10;;;;;;;26.55;13.95;;;;;;;2.17;90.53;100204.81;1775652;79;21321;-79
2020/12/14 10:17:15;;;;;;;29.70;14.15;;;;;;;2.18;89.81;100197.08;1758943;80;22298;-78
2020/12/14 10:20:20;;;;;;;33.38;14.90;;;;;;;2.15;89.38;100200.02;1775415;79;21311;-78
2020/12/14 10:23:25;;;;;;;30.77;14.70;;;;;;;2.13;89.42;100202.84;1760702;80;21333;-79
2020/12/14 10:26:30;;;;;;;35.08;14.53;;;;;;;2.14;89.24;100202.35;1766955;80;21363;-78
2020/12/14 10:29:37;;;;;;;29.07;14.25;;;;;;;2.14;89.14;100201.86;1765143;80;21326;-78
2020/12/14 10:32:43;;;;;;;29.18;14.73;;;;;;;2.14;89.22;100202.35;1773158;79;21811;-78
2020/12/14 10:36:00;;;;;;;26.00;12.93;;;;;;;2.13;89.15;100204.19;1773105;80;21764;-79
2020/12/14 10:39:06;;;;;;;23.10;12.25;;;;;;;2.12;89.05;100184.06;1769508;79;21200;-78
2020/12/14 10:42:12;;;;;;;25.50;13.22;;;;;;;2.19;89.17;100183.94;1781004;80;21295;-78
2020/12/14 10:45:19;;;;;;;23.77;12.88;;;;;;;2.23;88.81;100175.47;1785190;80;21338;-79
2020/12/14 10:48:29;;;;;;;25.43;12.78;;;;;;;2.24;88.70;100189.31;1766834;80;21302;-77
2020/12/14 10:51:39;;;;;;;31.33;14.45;;;;;;;2.26;88.65;100187.87;1767890;80;21306;-78
2020/12/14 10:54:45;;;;;;;30.35;15.32;;;;;;;2.29;88.57;100187.09;1758288;80;21313;-77
2020/12/14 10:57:51;;;;;;;27.10;13.68;;;;;;;2.28;88.10;100197.53;1772518;79;21303;-78
2020/12/14 11:00:58;;;;;;;32.42;14.75;;;;;;;2.20;88.04;100194.59;1769628;80;21178;-78
2020/12/14 11:04:03;;;;;;;29.45;14.10;;;;;;;2.13;88.01;100200.14;1759969;79;21846;-78
2020/12/14 11:07:11;;;;;;;27.95;14.43;;;;;;;2.06;88.11;100192.17;1758785;79;21315;-78
2020/12/14 11:10:17;;;;;;;28.12;14.28;;;;;;;2.02;88.18;100198.79;1757972;80;21177;-78
2020/12/14 11:13:23;;;;;;;23.62;13.40;;;;;;;2.01;88.17;100186.30;1762544;79;21275;-79
2020/12/14 11:16:31;;;;;;;30.80;14.23;;;;;;;2.08;88.40;100183.97;1765642;79;22477;-78
2020/12/14 11:19:37;;;;;;;27.77;14.30;;;;;;;2.06;88.26;100178.67;1785378;79;21318;-77
2020/12/14 11:22:47;;;;;;;26.77;13.90;;;;;;;2.03;88.04;100175.76;1770962;79;21294;-81
2020/12/14 11:25:52;;;;;;;24.43;13.15;;;;;;;1.99;87.86;100181.53;1788396;79;21291;-80
2020/12/14 11:28:59;;;;;;;31.90;15.20;;;;;;;1.91;87.84;100186.67;1781147;79;21279;-79
2020/12/14 11:32:05;;;;;;;30.32;15.30;;;;;;;1.83;87.88;100189.13;1729169;81;21295;-79
2020/12/14 11:35:11;;;;;;;25.20;13.98;;;;;;;1.78;88.32;100189.00;1751079;80;21376;-83
2020/12/14 11:38:19;;;;;;;28.17;14.00;;;;;;;1.79;88.80;100200.67;1723923;81;21933;-79
2020/12/14 11:41:25;;;;;;;26.45;13.18;;;;;;;1.85;89.12;100192.58;1752349;81;21303;-79
2020/12/14 11:44:31;;;;;;;30.82;15.08;;;;;;;1.88;89.26;100186.42;1725757;83;21736;-80
2020/12/14 11:47:44;;;;;;;28.52;14.58;;;;;;;1.92;89.22;100196.48;1745680;81;21356;-80
2020/12/14 11:50:49;;;;;;;28.02;14.80;;;;;;;1.94;88.97;100208.02;1745094;81;21326;-80
2020/12/14 11:53:56;;;;;;;29.40;16.30;;;;;;;1.99;88.90;100218.80;1743640;81;21302;-80
2020/12/14 11:57:03;;;;;;;31.33;15.95;;;;;;;2.09;88.64;100219.41;1775089;80;21320;-79
2020/12/14 12:00:09;;;;;;;27.13;14.60;;;;;;;2.05;88.22;100206.65;1776770;79;21312;-80
2020/12/14 12:03:19;;;;;;;30.02;14.75;;;;;;;1.98;87.88;100197.35;1784028;79;21263;-81
2020/12/14 12:06:25;;;;;;;27.42;14.73;;;;;;;1.91;87.98;100204.21;1779862;79;21348;-80
2020/12/14 12:09:32;;;;;;;33.30;15.43;;;;;;;1.83;88.17;100199.42;1775943;79;21684;-80
2020/12/14 12:12:37;;;;;;;28.35;13.68;;;;;;;1.82;88.43;100215.23;1778688;79;21259;-80
2020/12/14 12:15:43;;;;;;;27.52;14.03;;;;;;;1.84;88.54;100208.40;1779494;79;21174;-79
2020/12/14 12:18:50;;;;;;;29.92;14.35;;;;;;;1.89;88.55;100208.39;1755201;80;22004;-79
2020/12/14 12:21:59;;;;;;;28.52;14.68;;;;;;;1.89;88.48;100207.53;1762574;81;21327;-79
2020/12/14 12:25:04;;;;;;;24.02;13.85;;;;;;;1.86;88.46;100226.65;1767325;81;21194;-81
2020/12/14 12:28:09;;;;;;;25.27;13.80;;;;;;;1.84;88.62;100216.48;1762578;80;21304;-80
2020/12/14 12:31:15;;;;;;;27.73;14.53;;;;;;;1.88;88.80;100209.34;1763368;80;21815;-80
2020/12/14 12:34:20;;;;;;;30.75;14.73;;;;;;;1.89;88.76;100213.78;1764415;80;21201;-80
2020/12/14 12:37:26;;;;;;;27.20;13.62;;;;;;;1.86;88.79;100224.80;1755842;80;21237;-81
2020/12/14 12:40:31;;;;;;;27.52;12.55;;;;;;;1.88;88.87;100236.81;1762301;80;21291;-80
2020/12/14 12:43:37;;;;;;;25.35;14.95;;;;;;;1.85;88.79;100238.42;1760252;81;21181;-80
2020/12/14 12:46:43;;;;;;;29.10;14.87;;;;;;;1.87;88.82;100242.70;1770733;79;21684;-80
2020/12/14 12:49:49;;;;;;;26.93;15.60;;;;;;;1.87;88.77;100238.66;1764190;80;21889;-80
2020/12/14 12:52:54;;;;;;;25.27;14.03;;;;;;;1.85;88.66;100238.42;1756294;81;21660;-79
2020/12/14 12:56:02;;;;;;;26.82;13.30;;;;;;;1.81;88.70;100216.72;1760591;80;21306;-80
2020/12/14 12:59:08;;;;;;;23.42;12.23;;;;;;;1.79;88.86;100202.87;1773526;79;21332;-80
2020/12/14 13:02:14;;;;;;;24.43;13.70;;;;;;;1.78;88.83;100202.48;1768599;79;21287;-80
2020/12/14 13:05:21;;;;;;;26.33;13.25;;;;;;;1.78;88.92;100217.31;1767558;80;21194;-80
2020/12/14 13:08:31;;;;;;;26.68;14.25;;;;;;;1.77;89.06;100220.14;1763596;79;21752;-80
2020/12/14 13:11:42;;;;;;;21.20;10.93;;;;;;;1.75;89.26;100231.06;1766627;81;21803;-80
2020/12/14 13:14:44;;;;;;;20.30;12.23;;;;;;;1.78;89.45;100236.20;1761266;81;21745;-80
2020/12/14 13:17:51;;;;;;;25.82;14.43;;;;;;;1.80;89.48;100237.45;1770897;79;21285;-81
2020/12/14 13:20:56;;;;;;;21.85;12.63;;;;;;;1.79;89.38;100224.45;1762533;81;22417;-80
2020/12/14 13:24:03;;;;;;;26.42;14.28;;;;;;;1.73;89.43;100195.25;1764191;80;21335;-80
2020/12/14 13:27:09;;;;;;;27.50;13.45;;;;;;;1.70;89.61;100196.02;1764379;81;21757;-80
2020/12/14 13:30:16;;;;;;;28.70;13.30;;;;;;;1.67;89.83;100202.50;1764899;80;21216;-81
2020/12/14 13:33:23;;;;;;;23.27;12.53;;;;;;;1.66;89.98;100215.62;1762774;79;21233;-80
2020/12/14 13:36:29;;;;;;;26.07;12.07;;;;;;;1.69;90.11;100214.50;1770287;79;21775;-79
2020/12/14 13:39:37;;;;;;;30.48;14.47;;;;;;;1.72;90.12;100213.77;1774348;80;21282;-80
2020/12/14 13:42:43;;;;;;;28.57;14.85;;;;;;;1.78;90.08;100226.76;1727461;81;21284;-80
2020/12/14 13:45:49;;;;;;;27.48;15.63;;;;;;;1.81;89.90;100222.97;1728889;81;21705;-80
2020/12/14 13:48:56;;;;;;;26.65;13.75;;;;;;;1.81;89.77;100212.67;1776725;80;21284;-80
2020/12/14 13:52:05;;;;;;;26.55;15.15;;;;;;;1.82;89.73;100221.13;1787822;79;21197;-80
2020/12/14 13:55:10;;;;;;;24.52;12.58;;;;;;;1.86;89.66;100215.86;1764962;81;21217;-82
2020/12/14 13:58:16;;;;;;;26.25;14.83;;;;;;;1.86;89.53;100214.02;1773931;81;21761;-80
2020/12/14 14:01:22;;;;;;;30.65;15.75;;;;;;;1.87;89.37;100224.31;1773338;81;21744;-80
2020/12/14 14:04:29;;;;;;;29.32;16.35;;;;;;;1.84;89.29;100227.28;1772288;80;21279;-78
2020/12/14 14:07:34;;;;;;;32.35;16.75;;;;;;;1.75;89.23;100231.56;1774527;81;21216;-81
2020/12/14 14:10:40;;;;;;;23.73;14.18;;;;;;;1.70;89.35;100231.07;1756608;81;21576;-80
2020/12/14 14:13:45;;;;;;;34.13;15.98;;;;;;;1.73;89.62;100228.97;1759991;81;21327;-80
2020/12/14 14:17:00;;;;;;;26.23;14.33;;;;;;;1.77;89.69;100227.75;1755557;81;21279;-80
2020/12/14 14:20:06;;;;;;;32.33;16.52;;;;;;;1.81;89.71;100223.47;1772428;80;21336;-81
2020/12/14 14:23:12;;;;;;;34.20;17.05;;;;;;;1.81;89.59;100222.12;1759788;80;22013;-80